createdAt,value
2018-08-23T00:00:18.257Z,100.0
2018-08-23T00:01:19.885Z,100.0
2018-08-23T00:02:21.309Z,100.0
2018-08-23T00:03:22.747Z,100.0
2018-08-23T00:04:24.216Z,100.0
2018-08-23T00:05:26.026Z,100.0
2018-08-23T00:06:27.432Z,100.0
2018-08-23T00:07:29.350Z,100.0
2018-08-23T00:08:30.784Z,100.0
2018-08-23T00:09:32.178Z,100.0
2018-08-23T00:10:33.710Z,100.0
2018-08-23T00:11:35.087Z,100.0
2018-08-23T00:12:36.485Z,100.0
2018-08-23T00:13:37.988Z,100.0
2018-08-23T00:14:39.396Z,100.0
2018-08-23T00:15:40.794Z,100.0
2018-08-23T00:16:42.377Z,100.0
2018-08-23T00:17:43.718Z,100.0
2018-08-23T00:18:45.190Z,100.0
2018-08-23T00:19:46.600Z,100.0
2018-08-23T00:20:48.081Z,100.0
2018-08-23T00:21:49.509Z,100.0
2018-08-23T00:22:50.972Z,100.0
2018-08-23T00:23:52.375Z,100.0
2018-08-23T00:24:53.941Z,100.0
2018-08-23T00:25:55.349Z,100.0
2018-08-23T00:26:56.960Z,100.0
2018-08-23T00:27:58.326Z,100.0
2018-08-23T00:28:59.805Z,100.0
2018-08-23T00:30:01.230Z,100.0
2018-08-23T00:31:02.637Z,100.0
2018-08-23T00:32:04.187Z,100.0
2018-08-23T00:33:05.585Z,100.0
2018-08-23T00:34:06.995Z,100.0
2018-08-23T00:35:08.443Z,100.0
2018-08-23T00:36:09.853Z,100.0
2018-08-23T00:37:11.293Z,100.0
2018-08-23T00:38:12.780Z,100.0
2018-08-23T00:39:14.203Z,100.0
2018-08-23T00:40:15.613Z,100.0
2018-08-23T00:41:17.084Z,100.0
2018-08-23T00:42:18.487Z,100.0
2018-08-23T00:43:19.979Z,100.0
2018-08-23T00:44:21.368Z,100.0
2018-08-23T00:45:22.764Z,100.0
2018-08-23T00:46:24.315Z,100.0
2018-08-23T00:47:25.719Z,100.0
2018-08-23T00:48:27.113Z,100.0
2018-08-23T00:49:28.609Z,100.0
2018-08-23T00:50:30.024Z,100.0
2018-08-23T00:51:31.430Z,100.0
2018-08-23T00:52:32.930Z,100.0
2018-08-23T00:53:34.353Z,100.0
2018-08-23T00:54:35.813Z,100.0
2018-08-23T00:55:37.210Z,100.0
2018-08-23T00:56:38.693Z,100.0
2018-08-23T00:57:40.100Z,100.0
2018-08-23T00:58:41.607Z,100.0
2018-08-23T00:59:43.012Z,100.0
2018-08-23T01:00:44.436Z,100.0
2018-08-23T01:01:46.190Z,100.0
2018-08-23T01:02:47.632Z,100.0
2018-08-23T01:03:49.041Z,100.0
2018-08-23T01:04:50.627Z,100.0
2018-08-23T01:05:52.055Z,100.0
2018-08-23T01:06:53.458Z,100.0
2018-08-23T01:07:54.985Z,100.0
2018-08-23T01:08:56.380Z,100.0
2018-08-23T01:09:57.784Z,100.0
2018-08-23T01:10:59.268Z,100.0
2018-08-23T01:12:00.678Z,100.0
2018-08-23T01:13:02.095Z,100.0
2018-08-23T01:14:03.590Z,100.0
2018-08-23T01:15:04.990Z,100.0
2018-08-23T01:16:06.397Z,100.0
2018-08-23T01:17:07.932Z,100.0
2018-08-23T01:18:09.315Z,100.0
2018-08-23T01:19:10.719Z,100.0
2018-08-23T01:20:12.288Z,100.0
2018-08-23T01:21:13.689Z,100.0
2018-08-23T01:22:15.124Z,100.0
2018-08-23T01:23:16.659Z,100.0
2018-08-23T01:24:18.056Z,100.0
2018-08-23T01:25:19.460Z,100.0
2018-08-23T01:26:20.984Z,100.0
2018-08-23T01:27:22.436Z,100.0
2018-08-23T01:28:24.455Z,100.0
2018-08-23T01:29:25.891Z,100.0
2018-08-23T01:30:27.567Z,100.0
2018-08-23T01:31:28.980Z,100.0
2018-08-23T01:32:30.679Z,100.0
2018-08-23T01:33:32.086Z,100.0
2018-08-23T01:34:33.794Z,100.0
2018-08-23T01:35:35.199Z,100.0
2018-08-23T01:36:36.603Z,100.0
2018-08-23T01:37:38.254Z,100.0
2018-08-23T01:38:39.715Z,100.0
2018-08-23T01:39:41.169Z,100.0
2018-08-23T01:40:42.781Z,100.0
2018-08-23T01:41:44.231Z,100.0
2018-08-23T01:42:45.640Z,100.0
2018-08-23T01:43:47.337Z,100.0
2018-08-23T01:44:48.745Z,100.0
2018-08-23T01:45:50.145Z,100.0
2018-08-23T01:46:51.847Z,100.0
2018-08-23T01:47:53.270Z,100.0
2018-08-23T01:48:54.715Z,100.0
2018-08-23T01:49:56.360Z,100.0
2018-08-23T01:50:57.760Z,100.0
2018-08-23T01:51:59.184Z,100.0
2018-08-23T01:53:00.890Z,100.0
2018-08-23T01:54:02.362Z,100.0
2018-08-23T01:55:03.799Z,100.0
2018-08-23T01:56:05.447Z,100.0
2018-08-23T01:57:06.854Z,100.0
2018-08-23T01:58:08.258Z,100.0
2018-08-23T01:59:10.397Z,100.0
2018-08-23T02:00:11.795Z,100.0
2018-08-23T02:01:13.213Z,100.0
2018-08-23T02:02:14.942Z,100.0
2018-08-23T02:03:16.440Z,100.0
2018-08-23T02:04:17.928Z,100.0
2018-08-23T02:05:19.678Z,100.0
2018-08-23T02:06:21.219Z,100.0
2018-08-23T02:07:22.752Z,100.0
2018-08-23T02:08:24.535Z,100.0
2018-08-23T02:09:25.984Z,100.0
2018-08-23T02:10:27.745Z,100.0
2018-08-23T02:11:29.384Z,100.0
2018-08-23T02:12:31.025Z,100.0
2018-08-23T02:13:32.578Z,100.0
2018-08-23T02:14:34.331Z,100.0
2018-08-23T02:15:35.977Z,100.0
2018-08-23T02:16:37.779Z,100.0
2018-08-23T02:17:39.247Z,100.0
2018-08-23T02:18:40.959Z,100.0
2018-08-23T02:19:42.475Z,100.0
2018-08-23T02:20:44.221Z,100.0
2018-08-23T02:21:45.816Z,100.0
2018-08-23T02:22:47.353Z,100.0
2018-08-23T02:23:49.233Z,100.0
2018-08-23T02:24:50.806Z,100.0
2018-08-23T02:25:52.380Z,100.0
2018-08-23T02:26:54.092Z,100.0
2018-08-23T02:27:55.604Z,100.0
2018-08-23T02:28:57.326Z,100.0
2018-08-23T02:29:58.843Z,100.0
2018-08-23T02:31:00.744Z,100.0
2018-08-23T02:32:02.227Z,100.0
2018-08-23T02:33:03.729Z,100.0
2018-08-23T02:34:05.387Z,100.0
2018-08-23T02:35:06.940Z,100.0
2018-08-23T02:36:09.197Z,100.0
2018-08-23T02:37:10.922Z,100.0
2018-08-23T02:38:12.518Z,100.0
2018-08-23T02:39:14.012Z,100.0
2018-08-23T02:40:15.548Z,100.0
2018-08-23T02:41:17.221Z,100.0
2018-08-23T02:42:18.715Z,100.0
2018-08-23T02:43:20.767Z,100.0
2018-08-23T02:44:22.293Z,100.0
2018-08-23T02:45:24.118Z,100.0
2018-08-23T02:46:25.699Z,100.0
2018-08-23T02:47:27.155Z,100.0
2018-08-23T02:48:28.785Z,100.0
2018-08-23T02:49:30.299Z,100.0
2018-08-23T02:50:31.786Z,100.0
2018-08-23T02:51:33.912Z,100.0
2018-08-23T02:52:35.449Z,100.0
2018-08-23T02:53:36.861Z,100.0
2018-08-23T02:54:38.428Z,100.0
2018-08-23T02:55:39.906Z,100.0
2018-08-23T02:56:41.561Z,100.0
2018-08-23T02:57:42.991Z,100.0
2018-08-23T02:58:44.464Z,100.0
2018-08-23T02:59:46.321Z,100.0
2018-08-23T03:00:48.254Z,100.0
2018-08-23T03:01:49.745Z,100.0
2018-08-23T03:02:51.380Z,100.0
2018-08-23T03:03:52.890Z,100.0
2018-08-23T03:04:54.482Z,100.0
2018-08-23T03:05:55.978Z,100.0
2018-08-23T03:06:57.653Z,100.0
2018-08-23T03:07:59.204Z,100.0
2018-08-23T03:09:00.733Z,100.0
2018-08-23T03:10:02.554Z,100.0
2018-08-23T03:11:04.062Z,100.0
2018-08-23T03:12:05.598Z,100.0
2018-08-23T03:13:07.245Z,100.0
2018-08-23T03:14:08.819Z,100.0
2018-08-23T03:15:10.337Z,100.0
2018-08-23T03:16:12.029Z,100.0
2018-08-23T03:17:13.575Z,100.0
2018-08-23T03:18:15.110Z,100.0
2018-08-23T03:19:16.805Z,100.0
2018-08-23T03:20:18.321Z,100.0
2018-08-23T03:21:19.857Z,100.0
2018-08-23T03:22:21.649Z,100.0
2018-08-23T03:23:23.378Z,100.0
2018-08-23T03:24:24.962Z,100.0
2018-08-23T03:25:26.622Z,100.0
2018-08-23T03:26:28.203Z,100.0
2018-08-23T03:27:29.828Z,100.0
2018-08-23T03:28:31.551Z,100.0
2018-08-23T03:29:33.456Z,100.0
2018-08-23T03:30:35.308Z,100.0
2018-08-23T03:31:36.839Z,100.0
2018-08-23T03:32:38.551Z,100.0
2018-08-23T03:33:40.244Z,100.0
2018-08-23T03:34:42.045Z,100.0
2018-08-23T03:35:43.473Z,100.0
2018-08-23T03:36:45.078Z,100.0
2018-08-23T03:37:46.502Z,100.0
2018-08-23T03:38:48.136Z,100.0
2018-08-23T03:39:49.549Z,100.0
2018-08-23T03:40:52.961Z,100.0
2018-08-23T03:41:57.583Z,100.0
2018-08-23T03:43:01.159Z,100.0
2018-08-23T03:44:02.784Z,100.0
2018-08-23T03:45:05.437Z,100.0
2018-08-23T03:46:06.862Z,100.0
2018-08-23T03:47:08.538Z,100.0
2018-08-23T03:48:10.160Z,100.0
2018-08-23T03:49:11.581Z,100.0
2018-08-23T03:50:13.268Z,100.0
2018-08-23T03:51:14.927Z,100.0
2018-08-23T03:52:16.478Z,100.0
2018-08-23T03:53:18.186Z,100.0
2018-08-23T03:54:19.727Z,100.0
2018-08-23T03:55:21.342Z,100.0
2018-08-23T03:56:23.197Z,100.0
2018-08-23T03:57:24.706Z,100.0
2018-08-23T03:58:26.279Z,100.0
2018-08-23T03:59:28.134Z,100.0
2018-08-23T04:00:29.684Z,100.0
2018-08-23T04:01:31.248Z,100.0
2018-08-23T04:02:33.111Z,100.0
2018-08-23T04:03:34.629Z,100.0
2018-08-23T04:05:22.288Z,100.0
2018-08-23T04:06:23.670Z,100.0
2018-08-23T04:07:25.061Z,100.0
2018-08-23T04:08:26.569Z,100.0
2018-08-23T04:09:27.968Z,100.0
2018-08-23T04:10:29.375Z,100.0
2018-08-23T04:11:30.885Z,100.0
2018-08-23T04:12:32.673Z,100.0
2018-08-23T04:13:34.117Z,100.0
2018-08-23T04:14:35.661Z,100.0
2018-08-23T04:15:37.094Z,100.0
2018-08-23T04:16:38.720Z,100.0
2018-08-23T04:17:40.145Z,100.0
2018-08-23T04:18:41.857Z,100.0
2018-08-23T04:19:43.286Z,100.0
2018-08-23T04:20:44.924Z,100.0
2018-08-23T04:21:46.341Z,100.0
2018-08-23T04:22:48.012Z,100.0
2018-08-23T04:23:49.387Z,100.0
2018-08-23T04:24:52.325Z,100.0
2018-08-23T04:25:53.754Z,100.0
2018-08-23T04:26:55.364Z,100.0
2018-08-23T04:27:56.804Z,100.0
2018-08-23T04:28:59.091Z,100.0
2018-08-23T04:30:00.756Z,100.0
2018-08-23T04:31:02.156Z,100.0
2018-08-23T04:32:03.685Z,100.0
2018-08-23T04:33:05.675Z,100.0
2018-08-23T04:34:07.102Z,100.0
2018-08-23T04:35:09.069Z,100.0
2018-08-23T04:36:10.434Z,100.0
2018-08-23T04:37:12.022Z,100.0
2018-08-23T04:38:13.436Z,100.0
2018-08-23T04:39:15.101Z,100.0
2018-08-23T04:40:16.512Z,100.0
2018-08-23T04:41:19.021Z,100.0
2018-08-23T04:42:20.429Z,100.0
2018-08-23T04:43:22.165Z,100.0
2018-08-23T04:44:23.501Z,100.0
2018-08-23T04:45:24.908Z,100.0
2018-08-23T04:46:26.424Z,100.0
2018-08-23T04:47:27.823Z,100.0
2018-08-23T04:48:29.229Z,100.0
2018-08-23T04:49:30.777Z,100.0
2018-08-23T04:50:32.246Z,100.0
2018-08-23T04:51:34.131Z,100.0
2018-08-23T04:52:35.674Z,100.0
2018-08-23T04:53:37.477Z,100.0
2018-08-23T04:54:38.868Z,100.0
2018-08-23T04:55:40.409Z,100.0
2018-08-23T04:56:41.802Z,100.0
2018-08-23T04:57:43.546Z,100.0
2018-08-23T04:58:44.950Z,100.0
2018-08-23T04:59:46.661Z,100.0
2018-08-23T05:00:48.246Z,100.0
2018-08-23T05:01:49.664Z,100.0
2018-08-23T05:02:51.088Z,100.0
2018-08-23T05:03:52.765Z,100.0
2018-08-23T05:04:54.612Z,100.0
2018-08-23T05:05:56.250Z,100.0
2018-08-23T05:06:58.060Z,100.0
2018-08-23T05:07:59.535Z,100.0
2018-08-23T05:09:00.965Z,100.0
2018-08-23T05:10:02.371Z,100.0
2018-08-23T05:11:03.856Z,100.0
2018-08-23T05:12:05.262Z,100.0
2018-08-23T05:13:06.678Z,100.0
2018-08-23T05:14:08.206Z,100.0
2018-08-23T05:15:09.586Z,100.0
2018-08-23T05:16:10.997Z,100.0
2018-08-23T05:17:12.498Z,100.0
2018-08-23T05:18:13.911Z,100.0
2018-08-23T05:19:15.326Z,100.0
2018-08-23T05:20:16.812Z,100.0
2018-08-23T05:21:18.227Z,100.0
2018-08-23T05:22:19.696Z,100.0
2018-08-23T05:23:21.195Z,100.0
2018-08-23T05:24:22.790Z,100.0
2018-08-23T05:25:24.575Z,100.0
2018-08-23T05:26:26.077Z,100.0
2018-08-23T05:27:27.490Z,100.0
2018-08-23T05:28:29.183Z,100.0
2018-08-23T05:29:30.979Z,100.0
2018-08-23T05:30:32.394Z,100.0
2018-08-23T05:31:33.905Z,100.0
2018-08-23T05:32:35.329Z,100.0
2018-08-23T05:33:36.788Z,100.0
2018-08-23T05:34:38.421Z,100.0
2018-08-23T05:35:39.831Z,100.0
2018-08-23T05:36:41.507Z,100.0
2018-08-23T05:37:42.914Z,100.0
2018-08-23T05:38:44.387Z,100.0
2018-08-23T05:39:45.789Z,100.0
2018-08-23T05:40:47.264Z,100.0
2018-08-23T05:41:48.671Z,100.0
2018-08-23T05:42:50.150Z,100.0
2018-08-23T05:43:51.703Z,100.0
2018-08-23T05:44:53.235Z,100.0
2018-08-23T05:45:55.028Z,100.0
2018-08-23T05:46:56.570Z,100.0
2018-08-23T05:47:57.982Z,100.0
2018-08-23T05:48:59.689Z,100.0
2018-08-23T05:50:01.494Z,100.0
2018-08-23T05:51:03.103Z,100.0
2018-08-23T05:52:06.182Z,100.0
2018-08-23T05:53:07.935Z,100.0
2018-08-23T05:54:09.824Z,100.0
2018-08-23T05:55:11.426Z,100.0
2018-08-23T05:56:12.913Z,100.0
2018-08-23T05:57:40.838Z,100.0
2018-08-23T05:58:42.307Z,100.0
2018-08-23T05:59:43.722Z,100.0
2018-08-23T06:00:45.124Z,100.0
2018-08-23T06:01:46.793Z,100.0
2018-08-23T06:02:48.214Z,100.0
2018-08-23T06:03:49.674Z,100.0
2018-08-23T06:04:51.086Z,100.0
2018-08-23T06:05:52.494Z,100.0
2018-08-23T06:06:53.904Z,100.0
2018-08-23T06:07:55.307Z,100.0
2018-08-23T06:08:56.886Z,100.0
2018-08-23T06:09:58.303Z,100.0
2018-08-23T06:10:59.708Z,100.0
2018-08-23T06:12:01.198Z,100.0
2018-08-23T06:13:02.607Z,100.0
2018-08-23T06:14:04.054Z,100.0
2018-08-23T06:15:05.952Z,100.0
2018-08-23T06:16:07.246Z,100.0
2018-08-23T06:17:08.658Z,100.0
2018-08-23T06:18:10.255Z,100.0
2018-08-23T06:19:11.658Z,100.0
2018-08-23T06:20:13.075Z,100.0
2018-08-23T06:21:14.576Z,100.0
2018-08-23T06:22:15.983Z,100.0
2018-08-23T06:23:17.454Z,100.0
2018-08-23T06:24:18.863Z,100.0
2018-08-23T06:25:20.274Z,100.0
2018-08-23T06:26:21.778Z,100.0
2018-08-23T06:27:23.223Z,100.0
2018-08-23T06:28:24.618Z,100.0
2018-08-23T06:29:26.099Z,100.0
2018-08-23T06:30:27.500Z,100.0
2018-08-23T06:31:28.919Z,100.0
2018-08-23T06:32:30.369Z,100.0
2018-08-23T06:33:31.999Z,100.0
2018-08-23T06:34:33.305Z,100.0
2018-08-23T06:35:34.851Z,100.0
2018-08-23T06:36:36.226Z,100.0
2018-08-23T06:37:37.828Z,100.0
2018-08-23T06:38:39.279Z,100.0
2018-08-23T06:39:40.661Z,100.0
2018-08-23T06:40:42.150Z,100.0
2018-08-23T06:41:43.556Z,100.0
2018-08-23T06:42:44.958Z,100.0
2018-08-23T06:43:46.469Z,100.0
2018-08-23T06:44:47.872Z,100.0
2018-08-23T06:45:49.279Z,100.0
2018-08-23T06:46:50.790Z,100.0
2018-08-23T06:47:52.208Z,100.0
2018-08-23T06:48:53.678Z,100.0
2018-08-23T06:49:55.150Z,100.0
2018-08-23T06:50:56.574Z,100.0
2018-08-23T06:51:57.980Z,99.7
2018-08-23T06:52:59.637Z,98.8
2018-08-23T06:54:01.053Z,98.9
2018-08-23T06:55:02.459Z,97.5
2018-08-23T06:56:03.956Z,96.5
2018-08-23T06:57:05.362Z,95.9
2018-08-23T06:58:06.770Z,94.9
2018-08-23T06:59:08.277Z,94.3
2018-08-23T07:00:09.712Z,93.2
2018-08-23T07:01:11.118Z,92.7
2018-08-23T07:02:12.611Z,91.6
2018-08-23T07:03:14.028Z,91.1
2018-08-23T07:04:15.434Z,90.4
2018-08-23T07:05:16.985Z,89.4
2018-08-23T07:06:18.371Z,88.8
2018-08-23T07:07:19.777Z,87.8
2018-08-23T07:08:21.244Z,87.0
2018-08-23T07:09:23.039Z,86.5
2018-08-23T07:10:24.440Z,85.7
2018-08-23T07:11:25.979Z,85.2
2018-08-23T07:12:27.380Z,84.9
2018-08-23T07:13:28.892Z,84.2
2018-08-23T07:14:30.293Z,84.4
2018-08-23T07:15:31.702Z,83.8
2018-08-23T07:16:33.384Z,82.7
2018-08-23T07:17:34.832Z,82.2
2018-08-23T07:18:36.232Z,82.5
2018-08-23T07:19:37.700Z,82.0
2018-08-23T07:20:39.112Z,81.2
2018-08-23T07:21:40.551Z,81.4
2018-08-23T07:22:42.026Z,80.4
2018-08-23T07:23:43.423Z,80.3
2018-08-23T07:24:44.833Z,80.2
2018-08-23T07:25:46.349Z,79.7
2018-08-23T07:26:47.808Z,79.0
2018-08-23T07:27:49.432Z,78.5
2018-08-23T07:28:50.837Z,77.7
2018-08-23T07:29:52.657Z,77.5
2018-08-23T07:30:54.004Z,76.0
2018-08-23T07:31:55.602Z,75.3
2018-08-23T07:32:57.063Z,75.3
2018-08-23T07:33:58.479Z,74.5
2018-08-23T07:34:59.895Z,74.6
2018-08-23T07:36:01.311Z,73.9
2018-08-23T07:37:02.804Z,73.7
2018-08-23T07:38:04.213Z,73.1
2018-08-23T07:39:05.627Z,72.1
2018-08-23T07:40:07.120Z,72.1
2018-08-23T07:41:08.534Z,71.7
2018-08-23T07:42:09.963Z,71.0
2018-08-23T07:43:11.878Z,71.6
2018-08-23T07:44:13.231Z,70.5
2018-08-23T07:45:14.636Z,69.3
2018-08-23T07:46:16.175Z,69.8
2018-08-23T07:47:17.587Z,69.2
2018-08-23T07:48:19.382Z,69.2
2018-08-23T07:49:21.931Z,68.8
2018-08-23T07:50:23.367Z,68.5
2018-08-23T07:51:24.787Z,68.6
2018-08-23T07:52:26.305Z,68.2
2018-08-23T07:53:27.798Z,67.4
2018-08-23T07:54:29.479Z,67.0
2018-08-23T07:55:30.986Z,66.0
2018-08-23T07:56:32.391Z,66.2
2018-08-23T07:57:33.808Z,65.4
2018-08-23T07:58:35.305Z,64.3
2018-08-23T07:59:36.721Z,63.5
2018-08-23T08:00:38.187Z,63.8
2018-08-23T08:01:39.602Z,64.1
2018-08-23T08:02:41.026Z,63.2
2018-08-23T08:03:42.514Z,62.5
2018-08-23T08:04:43.925Z,61.3
2018-08-23T08:05:45.339Z,60.9
2018-08-23T08:06:46.830Z,60.2
2018-08-23T08:07:48.261Z,59.9
2018-08-23T08:08:49.671Z,59.3
2018-08-23T08:09:51.094Z,59.5
2018-08-23T08:10:52.499Z,59.3
2018-08-23T08:11:53.909Z,58.4
2018-08-23T08:12:55.374Z,57.9
2018-08-23T08:13:56.777Z,57.4
2018-08-23T08:14:58.427Z,57.3
2018-08-23T08:15:59.760Z,56.8
2018-08-23T08:17:01.236Z,56.2
2018-08-23T08:18:02.642Z,55.7
2018-08-23T08:19:04.109Z,54.9
2018-08-23T08:20:05.526Z,54.7
2018-08-23T08:21:07.053Z,54.6
2018-08-23T08:22:08.639Z,54.8
2018-08-23T08:23:10.048Z,54.2
2018-08-23T08:24:11.465Z,54.1
2018-08-23T08:25:12.998Z,53.9
2018-08-23T08:26:14.914Z,54.0
2018-08-23T08:27:16.350Z,53.7
2018-08-23T08:28:17.897Z,54.0
2018-08-23T08:29:19.319Z,54.2
2018-08-23T08:30:20.722Z,53.7
2018-08-23T08:31:22.234Z,54.3
2018-08-23T08:32:23.659Z,54.3
2018-08-23T08:33:25.066Z,54.3
2018-08-23T08:34:26.543Z,55.5
2018-08-23T08:35:27.949Z,55.6
2018-08-23T08:36:29.355Z,55.9
2018-08-23T08:37:30.861Z,55.4
2018-08-23T08:38:32.274Z,55.3
2018-08-23T08:39:33.746Z,55.0
2018-08-23T08:40:35.303Z,54.3
2018-08-23T08:41:36.817Z,53.7
2018-08-23T08:42:38.287Z,53.5
2018-08-23T08:43:39.915Z,52.4
2018-08-23T08:44:41.321Z,51.6
2018-08-23T08:45:42.791Z,51.9
2018-08-23T08:46:44.215Z,52.4
2018-08-23T08:47:45.618Z,53.2
2018-08-23T08:48:47.116Z,54.9
2018-08-23T08:49:48.523Z,54.9
2018-08-23T08:50:49.962Z,54.2
2018-08-23T08:51:51.437Z,53.4
2018-08-23T08:52:52.843Z,52.1
2018-08-23T08:53:54.317Z,51.8
2018-08-23T08:54:55.729Z,51.9
2018-08-23T08:55:57.197Z,49.9
2018-08-23T08:56:58.667Z,49.5
2018-08-23T08:58:00.007Z,47.8
2018-08-23T08:59:01.541Z,47.7
2018-08-23T09:00:02.956Z,46.6
2018-08-23T09:01:04.364Z,46.9
2018-08-23T09:02:05.841Z,46.9
2018-08-23T09:03:07.294Z,46.4
2018-08-23T09:04:08.663Z,45.8
2018-08-23T09:05:10.544Z,45.6
2018-08-23T09:06:11.948Z,45.8
2018-08-23T09:07:13.365Z,46.3
2018-08-23T09:08:14.896Z,46.4
2018-08-23T09:09:16.302Z,47.3
2018-08-23T09:10:17.779Z,47.9
2018-08-23T09:11:19.223Z,48.4
2018-08-23T09:12:20.633Z,48.2
2018-08-23T09:13:22.097Z,49.1
2018-08-23T09:14:23.530Z,49.9
2018-08-23T09:15:24.926Z,51.3
2018-08-23T09:16:26.808Z,51.1
2018-08-23T09:17:28.218Z,51.7
2018-08-23T09:18:29.631Z,51.8
2018-08-23T09:19:31.149Z,51.6
2018-08-23T09:20:32.629Z,52.1
2018-08-23T09:21:33.975Z,51.9
2018-08-23T09:22:35.469Z,52.4
2018-08-23T09:23:36.931Z,53.2
2018-08-23T09:24:38.568Z,53.9
2018-08-23T09:25:39.968Z,54.3
2018-08-23T09:26:41.442Z,54.3
2018-08-23T09:27:42.859Z,54.2
2018-08-23T09:28:44.266Z,54.2
2018-08-23T09:29:45.770Z,53.6
2018-08-23T09:30:47.168Z,53.8
2018-08-23T09:31:48.572Z,53.7
2018-08-23T09:32:50.089Z,54.1
2018-08-23T09:33:51.503Z,54.5
2018-08-23T09:34:52.984Z,54.3
2018-08-23T09:35:54.385Z,54.3
2018-08-23T09:36:55.844Z,54.0
2018-08-23T09:37:57.278Z,54.7
2018-08-23T09:38:58.724Z,54.1
2018-08-23T09:40:00.138Z,54.0
2018-08-23T09:41:01.605Z,53.8
2018-08-23T09:42:03.029Z,53.4
2018-08-23T09:43:04.501Z,53.6
2018-08-23T09:44:05.928Z,53.8
2018-08-23T09:45:07.345Z,53.3
2018-08-23T09:46:08.758Z,53.7
2018-08-23T09:47:10.248Z,54.1
2018-08-23T09:48:11.663Z,54.4
2018-08-23T09:49:13.132Z,53.7
2018-08-23T09:50:14.613Z,51.8
2018-08-23T09:51:16.089Z,52.7
2018-08-23T09:52:17.539Z,54.3
2018-08-23T09:53:18.908Z,54.2
2018-08-23T09:54:20.313Z,54.0
2018-08-23T09:55:22.181Z,53.5
2018-08-23T09:56:23.589Z,52.9
2018-08-23T09:57:24.999Z,52.9
2018-08-23T09:58:26.896Z,51.7
2018-08-23T09:59:28.295Z,50.9
2018-08-23T10:00:29.704Z,50.0
2018-08-23T10:01:31.230Z,49.4
2018-08-23T10:02:32.639Z,49.3
2018-08-23T10:03:34.048Z,48.5
2018-08-23T10:04:35.603Z,48.0
2018-08-23T10:05:36.984Z,46.9
2018-08-23T10:06:38.423Z,45.3
2018-08-23T10:07:39.903Z,45.4
2018-08-23T10:08:41.306Z,45.0
2018-08-23T10:09:42.953Z,43.2
2018-08-23T10:10:44.368Z,40.3
2018-08-23T10:11:45.909Z,38.3
2018-08-23T10:12:47.332Z,37.6
2018-08-23T10:13:48.925Z,37.0
2018-08-23T10:14:50.348Z,38.3
2018-08-23T10:15:51.809Z,40.4
2018-08-23T10:16:53.219Z,41.4
2018-08-23T10:17:54.691Z,42.8
2018-08-23T10:18:56.101Z,44.2
2018-08-23T10:19:57.565Z,45.1
2018-08-23T10:20:58.977Z,45.1
2018-08-23T10:22:01.414Z,45.3
2018-08-23T10:23:02.826Z,46.9
2018-08-23T10:24:04.361Z,47.4
2018-08-23T10:25:05.772Z,47.2
2018-08-23T10:26:07.213Z,47.1
2018-08-23T10:27:08.612Z,48.2
2018-08-23T10:28:10.113Z,48.5
2018-08-23T10:29:11.530Z,48.6
2018-08-23T10:30:12.928Z,48.4
2018-08-23T10:31:15.033Z,49.3
2018-08-23T10:32:16.532Z,48.3
2018-08-23T10:33:17.858Z,48.1
2018-08-23T10:34:19.379Z,48.7
2018-08-23T10:35:20.810Z,49.1
2018-08-23T10:36:22.256Z,49.8
2018-08-23T10:37:23.666Z,50.4
2018-08-23T10:38:25.140Z,51.1
2018-08-23T10:39:26.547Z,51.7
2018-08-23T10:40:28.026Z,52.2
2018-08-23T10:41:29.431Z,52.6
2018-08-23T10:42:30.899Z,51.9
2018-08-23T10:43:32.307Z,52.0
2018-08-23T10:44:33.731Z,53.4
2018-08-23T10:45:35.421Z,53.6
2018-08-23T10:46:36.833Z,53.5
2018-08-23T10:47:38.237Z,53.5
2018-08-23T10:48:39.756Z,53.3
2018-08-23T10:49:41.159Z,52.1
2018-08-23T10:50:42.614Z,52.6
2018-08-23T10:51:44.065Z,53.5
2018-08-23T10:52:45.455Z,52.6
2018-08-23T10:53:46.864Z,52.8
2018-08-23T10:54:48.386Z,52.5
2018-08-23T10:55:49.799Z,53.4
2018-08-23T10:56:51.207Z,53.5
2018-08-23T10:57:52.712Z,54.0
2018-08-23T10:58:54.130Z,53.2
2018-08-23T10:59:55.533Z,52.6
2018-08-23T11:00:57.045Z,52.2
2018-08-23T11:01:58.441Z,51.5
2018-08-23T11:02:59.854Z,51.5
2018-08-23T11:04:01.352Z,51.3
2018-08-23T11:05:02.758Z,50.5
2018-08-23T11:06:04.165Z,50.8
2018-08-23T11:07:05.677Z,51.6
2018-08-23T11:08:07.089Z,51.8
2018-08-23T11:09:08.551Z,51.3
2018-08-23T11:10:09.993Z,52.5
2018-08-23T11:11:11.770Z,53.4
2018-08-23T11:12:13.277Z,54.4
2018-08-23T11:13:14.695Z,54.0
2018-08-23T11:14:16.167Z,53.6
2018-08-23T11:15:17.579Z,54.7
2018-08-23T11:16:19.048Z,54.6
2018-08-23T11:17:20.464Z,54.7
2018-08-23T11:18:21.860Z,54.8
2018-08-23T11:19:23.384Z,55.6
2018-08-23T11:20:24.792Z,55.6
2018-08-23T11:21:26.197Z,55.9
2018-08-23T11:22:27.709Z,54.8
2018-08-23T11:23:29.107Z,54.8
2018-08-23T11:24:30.522Z,54.6
2018-08-23T11:25:32.010Z,55.1
2018-08-23T11:26:33.475Z,55.6
2018-08-23T11:27:34.870Z,55.5
2018-08-23T11:28:36.331Z,55.5
2018-08-23T11:29:37.791Z,55.2
2018-08-23T11:30:39.213Z,54.4
2018-08-23T11:31:40.619Z,54.8
2018-08-23T11:32:42.095Z,54.9
2018-08-23T11:33:43.502Z,54.5
2018-08-23T11:34:44.913Z,54.0
2018-08-23T11:35:46.422Z,54.7
2018-08-23T11:36:47.829Z,54.4
2018-08-23T11:37:49.239Z,54.6
2018-08-23T11:38:50.740Z,54.8
2018-08-23T11:39:52.545Z,55.1
2018-08-23T11:40:54.032Z,54.7
2018-08-23T11:41:55.466Z,55.2
2018-08-23T11:42:56.909Z,54.8
2018-08-23T11:43:58.319Z,55.4
2018-08-23T11:44:59.728Z,57.0
2018-08-23T11:46:01.267Z,56.4
2018-08-23T11:47:02.709Z,54.9
2018-08-23T11:48:04.064Z,54.6
2018-08-23T11:49:05.613Z,55.8
2018-08-23T11:50:07.070Z,56.8
2018-08-23T11:51:08.641Z,56.8
2018-08-23T11:52:10.093Z,56.6
2018-08-23T11:53:11.754Z,57.6
2018-08-23T11:54:13.182Z,57.9
2018-08-23T11:55:14.838Z,56.0
2018-08-23T11:56:16.242Z,56.4
2018-08-23T11:57:17.690Z,56.3
2018-08-23T11:58:19.132Z,56.2
2018-08-23T11:59:20.573Z,56.2
2018-08-23T12:00:21.981Z,56.8
2018-08-23T12:01:23.454Z,56.4
2018-08-23T12:02:24.865Z,57.4
2018-08-23T12:03:26.336Z,56.9
2018-08-23T12:04:27.746Z,57.0
2018-08-23T12:05:29.215Z,56.8
2018-08-23T12:06:30.647Z,56.4
2018-08-23T12:07:32.096Z,56.5
2018-08-23T12:08:33.501Z,55.9
2018-08-23T12:09:34.978Z,56.5
2018-08-23T12:10:36.388Z,56.1
2018-08-23T12:11:37.839Z,55.7
2018-08-23T12:12:39.300Z,55.8
2018-08-23T12:13:40.709Z,55.4
2018-08-23T12:14:42.124Z,55.9
2018-08-23T12:15:43.656Z,55.8
2018-08-23T12:16:45.419Z,56.2
2018-08-23T12:17:46.944Z,55.9
2018-08-23T12:18:48.331Z,56.9
2018-08-23T12:19:49.738Z,56.4
2018-08-23T12:20:51.231Z,57.8
2018-08-23T12:21:52.667Z,56.4
2018-08-23T12:22:54.074Z,57.1
2018-08-23T12:23:55.585Z,58.2
2018-08-23T12:24:56.988Z,58.1
2018-08-23T12:25:58.502Z,58.8
2018-08-23T12:26:59.872Z,57.6
2018-08-23T12:28:01.288Z,57.6
2018-08-23T12:29:02.712Z,58.3
2018-08-23T12:30:04.265Z,58.0
2018-08-23T12:31:05.723Z,57.9
2018-08-23T12:32:07.280Z,58.3
2018-08-23T12:33:08.695Z,58.6
2018-08-23T12:34:10.164Z,58.3
2018-08-23T12:35:11.591Z,57.7
2018-08-23T12:36:13.047Z,57.6
2018-08-23T12:37:14.834Z,56.8
2018-08-23T12:38:16.352Z,57.5
2018-08-23T12:39:17.736Z,57.8
2018-08-23T12:40:19.156Z,58.5
2018-08-23T12:41:20.660Z,59.7
2018-08-23T12:42:22.088Z,60.4
2018-08-23T12:43:23.496Z,59.1
2018-08-23T12:44:24.991Z,59.5
2018-08-23T12:45:26.400Z,60.5
2018-08-23T12:46:27.880Z,62.0
2018-08-23T12:47:29.274Z,62.0
2018-08-23T12:48:30.738Z,61.6
2018-08-23T12:49:32.170Z,62.0
2018-08-23T12:50:33.553Z,61.0
2018-08-23T12:51:35.065Z,60.5
2018-08-23T12:52:36.473Z,59.8
2018-08-23T12:53:37.877Z,59.9
2018-08-23T12:54:39.472Z,60.2
2018-08-23T12:55:40.842Z,60.6
2018-08-23T12:56:42.495Z,60.7
2018-08-23T12:57:43.889Z,60.6
2018-08-23T12:58:45.344Z,61.1
2018-08-23T12:59:46.752Z,61.3
2018-08-23T13:00:48.160Z,61.3
2018-08-23T13:01:49.676Z,61.8
2018-08-23T13:02:51.122Z,61.7
2018-08-23T13:03:52.559Z,61.3
2018-08-23T13:04:53.991Z,60.7
2018-08-23T13:05:55.397Z,60.9
2018-08-23T13:06:56.839Z,60.6
2018-08-23T13:07:58.335Z,60.4
2018-08-23T13:08:59.746Z,61.4
2018-08-23T13:10:01.165Z,61.7
2018-08-23T13:11:03.027Z,61.9
2018-08-23T13:12:04.429Z,60.4
2018-08-23T13:13:05.832Z,60.8
2018-08-23T13:14:07.462Z,61.6
2018-08-23T13:15:08.881Z,62.8
2018-08-23T13:16:10.295Z,63.5
2018-08-23T13:17:11.978Z,62.9
2018-08-23T13:18:13.449Z,62.4
2018-08-23T13:19:15.001Z,62.3
2018-08-23T13:20:16.392Z,62.5
2018-08-23T13:21:17.858Z,62.4
2018-08-23T13:22:19.272Z,62.5
2018-08-23T13:23:20.748Z,62.4
2018-08-23T13:24:22.159Z,62.0
2018-08-23T13:25:23.567Z,62.8
2018-08-23T13:26:25.168Z,63.6